Time;durP1;ratioP1;P1;durP2;ratioP2;P2;SDS_P1;SDS_P2;PMS_P1;PMS_P2;Temp;Humidity;BMP_temperature;BMP_pressure;BME280_temperature;BME280_humidity;BME280_pressure;Samples;Min_cycle;Max_cycle;Signal;HPM_P1;HPM_P2
2022/07/16 00:02:01;;;;;;;1.90;1.30;;;;;;;26.88;38.08;100527.42;1751081;81;21031;-81
2022/07/16 00:04:27;;;;;;;1.45;1.10;;;;;;;26.88;38.09;100527.42;1751152;80;21078;-81
2022/07/16 00:06:54;;;;;;;2.10;1.30;;;;;;;26.87;38.11;100528.02;1750818;81;21082;-80
2022/07/16 00:09:20;;;;;;;2.12;1.45;;;;;;;26.87;38.14;100529.41;1750954;81;21197;-81
2022/07/16 00:11:46;;;;;;;2.47;1.30;;;;;;;26.87;38.15;100531.39;1751158;81;21055;-81
2022/07/16 00:14:13;;;;;;;1.60;1.40;;;;;;;26.87;38.17;100531.39;1751174;81;21022;-81
2022/07/16 00:16:39;;;;;;;3.35;1.95;;;;;;;26.87;38.22;100536.38;1749911;81;21517;-81
2022/07/16 00:19:23;;;;;;;2.30;1.20;;;;;;;26.87;38.23;100534.98;1748231;80;21054;-80
2022/07/16 00:21:51;;;;;;;2.80;1.30;;;;;;;26.88;38.24;100535.80;1748028;81;21283;-81
2022/07/16 00:24:18;;;;;;;1.70;1.20;;;;;;;26.86;38.26;100528.40;1748315;80;21067;-81
2022/07/16 00:26:44;;;;;;;2.20;1.42;;;;;;;26.86;38.28;100526.42;1748174;80;21027;-81
2022/07/16 00:29:11;;;;;;;2.30;1.20;;;;;;;26.87;38.31;100530.80;1747883;81;21105;-81
2022/07/16 00:31:37;;;;;;;1.70;1.12;;;;;;;26.87;38.33;100536.38;1748500;81;21062;-81
2022/07/16 00:34:07;;;;;;;2.22;1.30;;;;;;;26.87;38.34;100529.98;1748152;81;21084;-81
2022/07/16 00:36:35;;;;;;;2.17;1.42;;;;;;;26.87;38.37;100527.20;1748203;81;21299;-81
2022/07/16 00:39:02;;;;;;;1.55;1.17;;;;;;;26.87;38.40;100536.97;1748085;81;21103;-81
2022/07/16 00:41:28;;;;;;;2.27;1.30;;;;;;;26.86;38.41;100541.77;1748129;81;21083;-81
2022/07/16 00:44:03;;;;;;;1.60;1.20;;;;;;;26.86;38.43;100534.80;1747803;80;21050;-80
2022/07/16 00:46:30;;;;;;;2.60;1.20;;;;;;;26.86;38.48;100543.17;1748165;80;21243;-81
2022/07/16 00:48:56;;;;;;;2.20;1.30;;;;;;;26.86;38.48;100533.98;1747756;81;21564;-81
2022/07/16 00:51:23;;;;;;;2.22;1.20;;;;;;;26.86;38.51;100534.80;1748280;81;20959;-81
2022/07/16 00:53:50;;;;;;;3.60;1.60;;;;;;;26.85;38.55;100530.38;1748159;81;21034;-80
2022/07/16 00:56:16;;;;;;;2.17;1.12;;;;;;;26.87;38.56;100535.58;1747967;81;21011;-80
2022/07/16 00:58:44;;;;;;;1.75;1.30;;;;;;;26.86;38.57;100536.19;1748213;80;21982;-80
2022/07/16 01:01:11;;;;;;;1.92;1.25;;;;;;;26.86;38.59;100537.59;1748307;80;21027;-81
2022/07/16 01:03:37;;;;;;;2.20;1.40;;;;;;;26.86;38.60;100543.17;1748143;81;21581;-81
2022/07/16 01:06:05;;;;;;;1.30;1.10;;;;;;;26.87;38.61;100539.77;1748591;81;21045;-81
2022/07/16 01:08:35;;;;;;;1.95;1.12;;;;;;;26.87;38.65;100546.16;1751247;81;21053;-80
2022/07/16 01:11:03;;;;;;;2.58;1.22;;;;;;;26.85;38.64;100540.15;1761218;81;21021;-81
2022/07/16 01:13:29;;;;;;;2.15;1.52;;;;;;;26.85;38.64;100540.15;1761528;80;21467;-80
2022/07/16 01:15:56;;;;;;;2.40;1.47;;;;;;;26.85;38.69;100535.96;1761316;80;21080;-80
2022/07/16 01:18:22;;;;;;;1.50;1.15;;;;;;;26.86;38.70;100540.96;1751456;80;21128;-80
2022/07/16 01:20:48;;;;;;;1.70;1.30;;;;;;;26.86;38.76;100534.80;1750410;80;21112;-80
2022/07/16 01:23:21;;;;;;;2.45;1.40;;;;;;;26.86;38.74;100538.98;1750765;81;21678;-80
2022/07/16 01:25:47;;;;;;;1.67;1.22;;;;;;;26.87;38.76;100536.97;1749838;80;21069;-81
2022/07/16 01:28:14;;;;;;;1.72;1.40;;;;;;;26.85;38.76;100530.38;1750697;80;21674;-81
2022/07/16 01:30:40;;;;;;;1.72;1.20;;;;;;;26.86;38.78;100527.81;1750713;80;21528;-80
2022/07/16 01:33:22;;;;;;;1.70;1.30;;;;;;;26.85;38.82;100535.15;1750663;80;21072;-81
2022/07/16 01:35:51;;;;;;;1.65;1.17;;;;;;;26.86;38.82;100536.77;1748560;80;22077;-81
2022/07/16 01:38:17;;;;;;;3.02;1.50;;;;;;;26.86;38.84;100529.21;1750525;80;21612;-81
2022/07/16 01:40:44;;;;;;;2.60;1.27;;;;;;;26.86;38.87;100536.77;1750705;80;21045;-81
2022/07/16 01:43:15;;;;;;;1.95;1.20;;;;;;;26.85;38.89;100537.36;1750750;80;21104;-81
2022/07/16 01:45:42;;;;;;;1.77;1.40;;;;;;;26.86;38.89;100539.56;1750310;80;22262;-81
2022/07/16 01:48:08;;;;;;;1.35;1.20;;;;;;;26.86;38.93;100545.15;1750471;80;21375;-81
2022/07/16 01:50:34;;;;;;;1.50;1.10;;;;;;;26.86;38.94;100543.17;1750575;80;21026;-81
2022/07/16 01:53:01;;;;;;;2.02;1.50;;;;;;;26.85;38.96;100544.34;1750690;81;21537;-81
2022/07/16 01:55:27;;;;;;;1.72;1.20;;;;;;;26.86;39.00;100536.77;1750983;80;21006;-81
2022/07/16 01:57:53;;;;;;;1.72;1.17;;;;;;;26.85;39.00;100540.15;1750770;81;21037;-81
2022/07/16 02:00:20;;;;;;;1.77;1.45;;;;;;;26.86;39.04;100536.77;1750803;81;21469;-80
2022/07/16 02:02:46;;;;;;;2.12;1.27;;;;;;;26.85;39.05;100537.94;1750938;81;21092;-81
2022/07/16 02:05:13;;;;;;;1.42;1.15;;;;;;;26.85;39.05;100541.55;1751180;81;21560;-81
2022/07/16 02:07:40;;;;;;;1.42;1.12;;;;;;;26.85;39.07;100542.94;1750792;80;21159;-81
2022/07/16 02:10:06;;;;;;;1.55;1.20;;;;;;;26.85;39.08;100542.94;1751079;81;21125;-81
2022/07/16 02:12:39;;;;;;;1.47;1.22;;;;;;;26.85;39.09;100542.94;1751151;81;21112;-80
2022/07/16 02:15:07;;;;;;;1.75;1.20;;;;;;;26.85;39.09;100551.31;1750824;80;21068;-81
2022/07/16 02:17:35;;;;;;;1.65;1.20;;;;;;;26.85;39.13;100541.55;1750921;80;21095;-81
2022/07/16 02:20:03;;;;;;;2.17;1.40;;;;;;;26.85;39.12;100542.94;1750822;80;21172;-80
2022/07/16 02:22:29;;;;;;;2.20;1.22;;;;;;;26.85;39.15;100544.92;1750866;81;20998;-81
2022/07/16 02:24:55;;;;;;;1.90;1.47;;;;;;;26.85;39.15;100549.11;1751244;81;21480;-80
2022/07/16 02:27:22;;;;;;;3.08;1.32;;;;;;;26.85;39.18;100542.94;1751134;80;21077;-81
2022/07/16 02:29:48;;;;;;;1.90;1.50;;;;;;;26.85;39.21;100549.92;1750766;80;21053;-81
2022/07/16 02:32:15;;;;;;;1.65;1.27;;;;;;;26.85;39.21;100549.92;1751072;80;21686;-81
2022/07/16 02:34:41;;;;;;;2.60;1.40;;;;;;;26.85;39.23;100554.11;1751003;81;20966;-80
2022/07/16 02:37:08;;;;;;;1.92;1.30;;;;;;;26.84;39.24;100556.64;1750735;82;21042;-80
2022/07/16 02:39:35;;;;;;;3.27;1.30;;;;;;;26.85;39.26;100556.89;1751193;80;21017;-81
2022/07/16 02:42:07;;;;;;;1.67;1.37;;;;;;;26.84;39.25;100558.03;1750932;81;21091;-80
2022/07/16 02:44:33;;;;;;;2.22;1.47;;;;;;;26.85;39.27;100560.27;1750945;80;21132;-81
2022/07/16 02:47:00;;;;;;;2.22;1.25;;;;;;;26.85;39.29;100560.27;1751079;80;21057;-81
2022/07/16 02:49:26;;;;;;;1.50;1.32;;;;;;;26.85;39.30;100568.06;1751022;80;21524;-81
2022/07/16 02:51:52;;;;;;;1.52;1.20;;;;;;;26.85;39.31;100565.27;1750564;81;20977;-80
2022/07/16 02:54:19;;;;;;;2.15;1.30;;;;;;;26.85;39.33;100572.25;1750941;80;21088;-82
2022/07/16 02:56:45;;;;;;;1.60;1.20;;;;;;;26.85;39.34;100575.63;1751031;81;21061;-81
2022/07/16 02:59:12;;;;;;;1.87;1.20;;;;;;;26.84;39.36;100573.39;1750840;81;21001;-81
2022/07/16 03:01:38;;;;;;;1.80;1.30;;;;;;;26.85;39.38;100578.42;1750943;80;21049;-81
2022/07/16 03:04:04;;;;;;;2.52;1.30;;;;;;;26.86;39.39;100578.64;1751038;81;21037;-81
2022/07/16 03:06:31;;;;;;;2.37;1.25;;;;;;;26.86;39.40;100575.85;1750689;81;21041;-84
2022/07/16 03:08:57;;;;;;;1.40;1.27;;;;;;;26.84;39.40;100585.95;1751137;80;21018;-81
2022/07/16 03:11:24;;;;;;;2.33;1.40;;;;;;;26.85;39.44;100590.39;1750765;80;21562;-81
2022/07/16 03:13:50;;;;;;;1.57;1.12;;;;;;;26.85;39.44;100591.79;1750979;80;21889;-81
2022/07/16 03:16:17;;;;;;;1.92;1.50;;;;;;;26.85;39.45;100590.98;1751081;82;21065;-81
2022/07/16 03:18:43;;;;;;;2.27;1.45;;;;;;;26.85;39.47;100593.77;1751625;80;21620;-81
2022/07/16 03:21:10;;;;;;;2.17;1.30;;;;;;;26.86;39.49;100598.19;1751930;81;20972;-80
2022/07/16 03:23:36;;;;;;;1.80;1.20;;;;;;;26.85;39.50;100591.79;1752034;81;21081;-81
2022/07/16 03:26:02;;;;;;;2.08;1.30;;;;;;;26.85;39.50;100597.95;1752087;81;21377;-81
2022/07/16 03:28:29;;;;;;;2.10;1.35;;;;;;;26.85;39.51;100604.35;1751544;80;21100;-81
2022/07/16 03:31:01;;;;;;;3.02;1.50;;;;;;;26.85;39.56;100607.73;1751864;81;21065;-81
2022/07/16 03:33:28;;;;;;;2.85;1.40;;;;;;;26.83;39.54;100613.05;1751701;81;21038;-81
2022/07/16 03:35:54;;;;;;;2.10;1.50;;;;;;;26.85;39.58;100618.89;1751729;81;20998;-81
2022/07/16 03:41:05;;;;;;;2.05;1.40;;;;;;;26.86;39.62;100614.94;1751487;81;21017;-81
2022/07/16 03:43:32;;;;;;;1.65;1.32;;;;;;;26.84;39.61;100608.28;1751819;80;21453;-81
2022/07/16 03:45:58;;;;;;;1.60;1.27;;;;;;;26.84;39.63;100618.05;1751827;81;21057;-81
2022/07/16 03:48:24;;;;;;;1.87;1.30;;;;;;;26.84;39.65;100625.02;1751472;81;21068;-80
2022/07/16 03:50:51;;;;;;;2.47;1.45;;;;;;;26.85;39.67;100625.88;1743883;81;21630;-81
2022/07/16 03:53:17;;;;;;;2.00;1.50;;;;;;;26.85;39.68;100626.69;1712146;83;21128;-81
2022/07/16 03:55:50;;;;;;;1.85;1.40;;;;;;;26.84;39.71;100633.40;1719813;83;21047;-82
2022/07/16 03:58:16;;;;;;;1.67;1.30;;;;;;;26.85;39.70;100633.66;1719885;83;21095;-82
2022/07/16 04:00:42;;;;;;;1.60;1.40;;;;;;;26.85;39.71;100636.45;1720149;82;21331;-82
2022/07/16 04:03:09;;;;;;;2.62;1.20;;;;;;;26.86;39.75;100645.06;1719598;83;21151;-81
2022/07/16 04:05:35;;;;;;;2.22;1.40;;;;;;;26.84;39.83;100644.56;1719791;83;21048;-81
2022/07/16 04:08:01;;;;;;;2.17;1.47;;;;;;;26.83;39.85;100640.96;1719789;83;21056;-81
2022/07/16 04:10:28;;;;;;;1.40;1.22;;;;;;;26.83;39.89;100645.73;1719644;83;21067;-81
2022/07/16 04:12:54;;;;;;;2.17;1.40;;;;;;;26.82;39.91;100644.92;1719718;83;21087;-80
2022/07/16 04:15:21;;;;;;;2.35;1.30;;;;;;;26.83;39.92;100649.92;1719838;83;21685;-81
2022/07/16 04:17:47;;;;;;;1.95;1.40;;;;;;;26.84;39.93;100654.34;1715774;83;21134;-81
2022/07/16 04:20:14;;;;;;;2.80;1.50;;;;;;;26.83;39.92;100653.52;1695775;84;21025;-81
2022/07/16 04:22:41;;;;;;;1.85;1.45;;;;;;;26.85;39.94;100649.02;1695952;83;21013;-81
2022/07/16 04:25:08;;;;;;;2.33;1.52;;;;;;;26.84;39.95;100657.13;1695545;84;21131;-82
2022/07/16 04:27:34;;;;;;;1.85;1.40;;;;;;;26.86;39.96;100656.80;1695692;84;22159;-81
2022/07/16 04:30:01;;;;;;;1.50;1.30;;;;;;;26.85;39.97;100653.20;1697646;83;21019;-81
2022/07/16 04:32:27;;;;;;;2.08;1.50;;;;;;;26.86;39.97;100655.41;1695916;84;21502;-81
2022/07/16 04:34:54;;;;;;;2.20;1.30;;;;;;;26.87;39.97;100657.01;1695956;84;21079;-81
2022/07/16 04:37:20;;;;;;;1.75;1.47;;;;;;;26.86;40.00;100661.81;1696037;83;21057;-81
2022/07/16 04:39:47;;;;;;;2.17;1.57;;;;;;;26.87;40.00;100659.80;1696298;83;21186;-81
2022/07/16 04:42:13;;;;;;;2.47;1.40;;;;;;;26.87;40.02;100660.61;1696368;84;21459;-81
2022/07/16 04:44:40;;;;;;;1.75;1.20;;;;;;;26.88;40.05;100655.84;1696434;83;21086;-81
2022/07/16 04:47:06;;;;;;;1.40;1.20;;;;;;;26.89;40.06;100658.28;1696049;83;21040;-81
2022/07/16 04:49:33;;;;;;;1.75;1.30;;;;;;;26.90;40.05;100668.28;1696407;83;21570;-81
2022/07/16 04:51:59;;;;;;;1.80;1.12;;;;;;;26.89;40.07;100663.86;1696369;83;21703;-81
2022/07/16 04:54:26;;;;;;;1.87;1.30;;;;;;;26.90;40.07;100673.05;1695994;83;21012;-81
2022/07/16 04:56:52;;;;;;;2.45;1.75;;;;;;;26.90;40.10;100669.67;1696361;83;21091;-81
2022/07/16 04:59:19;;;;;;;2.10;1.25;;;;;;;26.91;40.07;100668.48;1696259;84;21575;-81
2022/07/16 05:01:45;;;;;;;1.62;1.30;;;;;;;26.90;40.10;100676.66;1696183;83;20987;-81
2022/07/16 05:04:11;;;;;;;2.10;1.25;;;;;;;26.92;40.09;100668.71;1696362;83;21083;-80
2022/07/16 05:06:38;;;;;;;2.42;1.50;;;;;;;26.92;40.11;100668.71;1697368;83;21100;-81
2022/07/16 05:09:04;;;;;;;1.90;1.40;;;;;;;26.92;40.11;100663.70;1699334;84;21582;-81
2022/07/16 05:11:37;;;;;;;1.90;1.47;;;;;;;26.93;40.13;100665.34;1699262;83;21049;-81
2022/07/16 05:14:03;;;;;;;2.10;1.50;;;;;;;26.93;40.13;100668.94;1699603;84;21095;-81
2022/07/16 05:16:29;;;;;;;1.40;1.30;;;;;;;26.93;40.12;100663.94;1699249;84;21511;-81
2022/07/16 05:18:56;;;;;;;1.50;1.15;;;;;;;26.93;40.15;100667.55;1676853;84;21057;-81
2022/07/16 05:21:22;;;;;;;3.33;1.50;;;;;;;26.93;40.16;100671.73;1695116;83;21117;-81
2022/07/16 05:23:55;;;;;;;2.05;1.50;;;;;;;26.93;40.16;100677.31;1743821;81;21590;-81
2022/07/16 05:26:21;;;;;;;1.50;1.12;;;;;;;26.93;40.17;100677.90;1743614;82;21035;-81
2022/07/16 05:28:48;;;;;;;1.52;1.32;;;;;;;26.93;40.18;100682.90;1743676;80;21293;-81
2022/07/16 05:31:17;;;;;;;3.12;1.57;;;;;;;26.94;40.18;100687.91;1743395;82;20944;-82
2022/07/16 05:33:43;;;;;;;1.70;1.40;;;;;;;26.94;40.21;100692.09;1743969;80;21009;-82
2022/07/16 05:36:10;;;;;;;1.35;1.25;;;;;;;26.94;40.21;100694.30;1743708;80;21484;-81
2022/07/16 05:38:36;;;;;;;1.98;1.42;;;;;;;26.94;40.21;100687.31;1743683;82;20980;-81
2022/07/16 05:41:02;;;;;;;1.67;1.40;;;;;;;26.96;40.22;100696.70;1727224;82;21097;-81
2022/07/16 05:43:29;;;;;;;1.80;1.60;;;;;;;26.95;40.23;100691.70;1743950;82;21016;-81
2022/07/16 05:45:55;;;;;;;2.10;1.42;;;;;;;26.96;40.25;100698.91;1743787;80;21062;-82
2022/07/16 05:48:22;;;;;;;1.57;1.35;;;;;;;26.95;40.24;100700.66;1744145;82;21040;-82
2022/07/16 05:50:48;;;;;;;1.67;1.27;;;;;;;26.95;40.26;100705.66;1749950;80;21532;-82
2022/07/16 05:53:15;;;;;;;2.70;1.55;;;;;;;26.97;40.27;100703.91;1754086;81;21761;-81
2022/07/16 05:55:41;;;;;;;2.42;1.40;;;;;;;26.96;40.27;100709.27;1754071;80;20966;-82
2022/07/16 05:58:08;;;;;;;1.67;1.47;;;;;;;26.96;40.28;100705.08;1754169;80;20969;-81
2022/07/16 06:00:34;;;;;;;1.52;1.22;;;;;;;26.96;40.30;100712.88;1753747;80;21010;-81
2022/07/16 06:03:01;;;;;;;1.60;1.20;;;;;;;26.96;40.29;100715.67;1754291;80;20993;-82
2022/07/16 06:05:27;;;;;;;1.55;1.20;;;;;;;26.97;40.30;100719.27;1754196;80;21879;-81
2022/07/16 06:07:54;;;;;;;1.92;1.55;;;;;;;26.96;40.30;100724.05;1749552;81;21104;-81
2022/07/16 06:10:20;;;;;;;2.15;1.40;;;;;;;26.98;40.30;100720.90;1749637;81;21518;-82
2022/07/16 06:12:47;;;;;;;1.60;1.30;;;;;;;26.98;40.34;100725.91;1749495;81;20995;-81
2022/07/16 06:15:13;;;;;;;1.72;1.40;;;;;;;26.98;40.34;100718.11;1749345;82;21061;-82
2022/07/16 06:17:40;;;;;;;1.42;1.22;;;;;;;26.98;40.33;100716.71;1749436;82;21256;-82
2022/07/16 06:20:07;;;;;;;1.52;1.12;;;;;;;26.98;40.37;100718.92;1746757;81;21103;-82
2022/07/16 06:22:34;;;;;;;1.98;1.57;;;;;;;26.99;40.34;100721.13;1746306;82;21056;-82
2022/07/16 06:25:00;;;;;;;2.62;1.62;;;;;;;26.98;40.35;100716.13;1746567;81;21044;-82
2022/07/16 06:27:26;;;;;;;3.37;1.40;;;;;;;26.99;40.37;100714.16;1743663;81;21067;-82
2022/07/16 06:29:53;;;;;;;2.80;1.42;;;;;;;26.99;40.39;100713.53;1743418;80;21158;-82
2022/07/16 06:32:19;;;;;;;2.58;1.65;;;;;;;26.99;40.37;100717.72;1743590;81;21566;-81
2022/07/16 06:34:46;;;;;;;2.05;1.52;;;;;;;26.98;40.39;100707.75;1743662;82;21036;-82
2022/07/16 06:37:12;;;;;;;2.30;1.57;;;;;;;26.99;40.40;100706.55;1743240;80;21032;-81
2022/07/16 06:39:41;;;;;;;2.45;1.50;;;;;;;26.99;40.40;100712.14;1743807;80;21669;-81
2022/07/16 06:42:07;;;;;;;3.30;1.75;;;;;;;27.00;40.39;100717.95;1743590;82;21143;-81
2022/07/16 06:44:34;;;;;;;1.98;1.32;;;;;;;27.00;40.43;100711.56;1743316;81;21547;-81
2022/07/16 06:47:01;;;;;;;2.27;1.40;;;;;;;27.00;40.43;100715.16;1743697;81;21111;-81
2022/07/16 06:49:27;;;;;;;2.05;1.42;;;;;;;26.99;40.44;100709.34;1743589;81;21602;-81
2022/07/16 06:51:54;;;;;;;2.33;1.32;;;;;;;27.00;40.45;100716.56;1743381;80;21027;-81
2022/07/16 06:54:20;;;;;;;1.55;1.30;;;;;;;27.01;40.47;100716.79;1743382;80;21138;-81
2022/07/16 06:56:46;;;;;;;3.15;1.60;;;;;;;27.02;40.46;100719.81;1743481;81;21366;-82
2022/07/16 06:59:13;;;;;;;2.30;1.40;;;;;;;27.02;40.49;100722.61;1743545;80;21074;-82
2022/07/16 07:01:39;;;;;;;1.75;1.30;;;;;;;27.03;40.52;100717.83;1746558;80;21094;-82
2022/07/16 07:04:06;;;;;;;2.25;1.47;;;;;;;27.02;40.51;100714.23;1748165;80;22108;-82
2022/07/16 07:06:32;;;;;;;2.35;1.30;;;;;;;27.03;40.51;100710.23;1747288;80;21605;-82
2022/07/16 07:09:05;;;;;;;2.50;1.55;;;;;;;27.04;40.54;100711.86;1759942;81;21813;-82
2022/07/16 07:11:31;;;;;;;2.47;1.60;;;;;;;27.05;40.56;100709.89;1760048;81;21118;-82
2022/07/16 07:13:58;;;;;;;2.12;1.40;;;;;;;27.05;40.55;100707.09;1759781;81;21079;-82
2022/07/16 07:16:24;;;;;;;2.30;1.32;;;;;;;27.05;40.56;100709.30;1759945;81;21707;-82
2022/07/16 07:18:51;;;;;;;2.33;1.42;;;;;;;27.05;40.57;100705.11;1759004;81;21846;-81
2022/07/16 07:21:17;;;;;;;2.80;1.40;;;;;;;27.06;40.57;100701.16;1759537;81;21098;-82
2022/07/16 07:23:44;;;;;;;1.65;1.35;;;;;;;27.06;40.60;100698.95;1759741;81;21012;-81
2022/07/16 07:26:11;;;;;;;2.10;1.25;;;;;;;27.06;40.62;100696.97;1759811;81;21071;-81
2022/07/16 07:28:37;;;;;;;2.87;1.40;;;;;;;27.07;40.61;100700.57;1748751;81;22081;-82
2022/07/16 07:31:03;;;;;;;2.33;1.32;;;;;;;27.07;40.61;100705.58;1749425;82;21569;-81
2022/07/16 07:33:30;;;;;;;2.83;1.62;;;;;;;27.07;40.62;100694.98;1749199;81;21115;-82
2022/07/16 07:35:56;;;;;;;1.92;1.40;;;;;;;27.08;40.65;100704.95;1749229;82;21019;-81
2022/07/16 07:38:23;;;;;;;1.32;1.20;;;;;;;27.08;40.65;100707.17;1749307;81;21056;-82
2022/07/16 07:40:49;;;;;;;1.62;1.50;;;;;;;27.09;40.66;100708.80;1749499;82;21087;-81
2022/07/16 07:43:16;;;;;;;2.27;1.20;;;;;;;27.08;40.65;100708.56;1749114;82;21088;-82
2022/07/16 07:45:43;;;;;;;1.77;1.40;;;;;;;27.09;40.68;100711.59;1749373;81;21510;-82
2022/07/16 07:48:09;;;;;;;2.05;1.40;;;;;;;27.09;40.68;100707.40;1749374;81;21103;-81
2022/07/16 07:50:36;;;;;;;2.00;1.40;;;;;;;27.10;40.71;100711.82;1749294;82;21028;-82
2022/07/16 07:53:03;;;;;;;1.82;1.20;;;;;;;27.10;40.71;100717.41;1749473;80;20996;-81
2022/07/16 07:55:30;;;;;;;2.00;1.37;;;;;;;27.10;40.70;100713.80;1750017;81;21487;-82
2022/07/16 07:57:57;;;;;;;1.77;1.25;;;;;;;27.10;40.72;100714.61;1749314;81;21040;-82
2022/07/16 08:00:24;;;;;;;2.33;1.30;;;;;;;27.10;40.71;100702.63;1749654;81;21020;-82
2022/07/16 08:02:50;;;;;;;2.10;1.35;;;;;;;27.11;40.73;100713.45;1749731;81;21411;-81
2022/07/16 08:05:17;;;;;;;2.58;1.27;;;;;;;27.11;40.72;100712.05;1749507;82;21570;-81
2022/07/16 08:07:44;;;;;;;1.70;1.20;;;;;;;27.12;40.72;100704.45;1749631;81;21913;-80
2022/07/16 08:10:10;;;;;;;1.60;1.40;;;;;;;27.12;40.72;100698.28;1749430;81;21072;-81
2022/07/16 08:12:37;;;;;;;1.60;1.37;;;;;;;27.13;40.72;100695.72;1749521;81;21059;-82
2022/07/16 08:15:05;;;;;;;2.50;1.60;;;;;;;27.12;40.75;100687.70;1745931;81;21008;-81
2022/07/16 08:17:31;;;;;;;1.85;1.30;;;;;;;27.12;40.75;100687.70;1744063;81;20949;-82
2022/07/16 08:19:57;;;;;;;1.75;1.22;;;;;;;27.13;40.75;100688.73;1743656;81;21529;-81
2022/07/16 08:22:30;;;;;;;2.95;1.55;;;;;;;27.13;40.75;100685.13;1743904;80;21525;-82
2022/07/16 08:27:41;;;;;;;1.72;1.37;;;;;;;27.14;40.78;100692.34;1728014;81;21036;-81
2022/07/16 08:30:08;;;;;;;1.92;1.20;;;;;;;27.15;40.77;100700.38;1728162;83;21570;-81
2022/07/16 08:32:35;;;;;;;1.65;1.40;;;;;;;27.14;40.77;100697.34;1728339;81;21995;-82
2022/07/16 08:35:01;;;;;;;1.82;1.45;;;;;;;27.14;40.77;100688.97;1697319;83;21009;-82
2022/07/16 08:37:35;;;;;;;1.77;1.32;;;;;;;27.15;40.80;100692.58;1728265;81;21064;-81
2022/07/16 08:40:05;;;;;;;1.87;1.30;;;;;;;27.14;40.78;100694.55;1728180;81;21032;-82
2022/07/16 08:42:32;;;;;;;;;;;;;;;27.15;40.80;100691.18;1730234;81;21501;-82
2022/07/16 08:44:59;;;;;;;2.00;1.37;;;;;;;27.14;40.84;100688.16;1762090;80;21251;-81
2022/07/16 08:47:27;;;;;;;1.57;1.20;;;;;;;27.13;40.77;100683.73;1761787;80;21067;-82
2022/07/16 08:49:53;;;;;;;2.72;1.40;;;;;;;27.14;40.77;100694.55;1761608;80;21016;-82
2022/07/16 08:52:20;;;;;;;1.70;1.30;;;;;;;27.14;40.79;100685.36;1762153;80;21004;-82
2022/07/16 08:54:48;;;;;;;1.98;1.15;;;;;;;27.14;40.81;100697.34;1736230;81;21510;-81
2022/07/16 08:57:15;;;;;;;2.15;1.30;;;;;;;27.14;40.83;100699.33;1761703;80;21977;-82
2022/07/16 08:59:41;;;;;;;1.37;1.20;;;;;;;27.15;40.83;100705.14;1761797;80;21047;-81
2022/07/16 09:02:08;;;;;;;3.05;1.57;;;;;;;27.16;40.84;100701.16;1761852;80;21074;-81
2022/07/16 09:04:35;;;;;;;3.27;1.50;;;;;;;27.15;40.84;100700.95;1761706;81;21463;-82
2022/07/16 09:07:01;;;;;;;1.50;1.40;;;;;;;27.16;40.84;100702.55;1761176;81;21502;-81
2022/07/16 09:09:27;;;;;;;1.72;1.37;;;;;;;27.16;40.84;100691.37;1760362;81;21493;-81
2022/07/16 09:11:54;;;;;;;3.83;1.50;;;;;;;27.16;40.84;100701.16;1734180;81;21612;-82
2022/07/16 09:14:20;;;;;;;2.12;1.35;;;;;;;27.17;40.83;100698.59;1734641;81;21041;-81
2022/07/16 09:16:51;;;;;;;3.58;1.40;;;;;;;27.17;40.85;100698.00;1760249;81;21032;-81
2022/07/16 09:19:25;;;;;;;2.77;1.30;;;;;;;27.17;40.86;100699.40;1759508;81;21031;-82
2022/07/16 09:22:12;;;;;;;1.90;1.70;;;;;;;27.17;40.82;100702.19;1766657;80;21195;-82
2022/07/16 09:24:52;;;;;;;2.25;1.50;;;;;;;27.18;40.83;100698.82;1697768;84;20988;-82
2022/07/16 09:27:21;;;;;;;2.50;1.40;;;;;;;27.16;40.83;100696.96;1756169;80;21526;-82
2022/07/16 09:29:58;;;;;;;1.67;1.30;;;;;;;27.17;40.82;100694.40;1743842;80;21544;-82
2022/07/16 09:32:30;;;;;;;1.45;1.25;;;;;;;27.16;40.82;100690.80;1743707;80;21119;-82
2022/07/16 09:35:14;;;;;;;1.45;1.22;;;;;;;27.16;40.83;100696.38;1751574;80;21091;-82
2022/07/16 09:37:52;;;;;;;2.70;1.30;;;;;;;27.17;40.86;100701.38;1742390;81;21089;-82
2022/07/16 09:40:42;;;;;;;2.87;1.50;;;;;;;27.16;40.83;100692.19;1743491;82;21041;-82
2022/07/16 09:43:17;;;;;;;1.77;1.45;;;;;;;27.16;40.83;100694.98;1727061;82;24002;-82
2022/07/16 09:45:47;;;;;;;1.35;1.22;;;;;;;27.16;40.84;100691.37;1743473;82;21318;-82
2022/07/16 09:48:35;;;;;;;2.00;1.50;;;;;;;27.16;40.84;100699.17;1743707;80;23605;-81
2022/07/16 09:51:25;;;;;;;1.57;1.40;;;;;;;27.16;40.84;100696.38;1743455;80;21068;-81
2022/07/16 09:53:51;;;;;;;2.75;1.40;;;;;;;27.16;40.86;100692.19;1743238;80;21088;-82
2022/07/16 09:56:26;;;;;;;2.25;1.50;;;;;;;27.16;40.86;100689.40;1743021;82;21092;-82
2022/07/16 09:58:57;;;;;;;2.50;1.37;;;;;;;27.16;40.84;100681.02;1743367;82;21622;-82
2022/07/16 10:01:24;;;;;;;2.15;1.40;;;;;;;27.17;40.87;100679.03;1743080;82;21251;-81
2022/07/16 10:03:51;;;;;;;1.57;1.30;;;;;;;27.16;40.86;100679.62;1743618;81;21614;-81
2022/07/16 10:06:18;;;;;;;2.20;1.32;;;;;;;27.15;40.88;100678.03;1757972;80;21024;-81
2022/07/16 10:08:44;;;;;;;1.72;1.37;;;;;;;27.17;40.89;100677.05;1756656;81;20984;-81
2022/07/16 10:11:10;;;;;;;1.57;1.20;;;;;;;27.18;40.88;100675.89;1757043;81;21152;-81
2022/07/16 10:13:37;;;;;;;2.10;1.40;;;;;;;27.17;40.90;100673.45;1756895;81;22121;-81
2022/07/16 10:16:04;;;;;;;1.75;1.27;;;;;;;27.19;40.91;100671.93;1757031;81;21052;-81
2022/07/16 10:18:41;;;;;;;1.30;1.20;;;;;;;27.18;40.91;100666.70;1757227;81;21036;-80
2022/07/16 10:21:21;;;;;;;1.95;1.20;;;;;;;27.18;40.89;100662.51;1740696;81;21048;-82
2022/07/16 10:24:05;;;;;;;;;;;;;;;27.18;40.89;100660.53;1733118;82;21693;-82
2022/07/16 10:26:35;;;;;;;2.08;1.55;;;;;;;27.18;40.92;100656.92;1730270;82;21105;-81
2022/07/16 10:29:01;;;;;;;1.62;1.30;;;;;;;27.17;40.85;100653.32;1730543;82;21029;-82
2022/07/16 10:34:38;;;;;;;1.27;1.10;;;;;;;27.17;40.90;100659.48;1730134;82;21037;-82
2022/07/16 10:37:16;;;;;;;3.10;1.47;;;;;;;27.16;40.89;100654.48;1730721;82;21587;-82
2022/07/16 10:40:07;;;;;;;2.35;1.40;;;;;;;27.16;40.89;100653.09;1729510;82;22056;-81
2022/07/16 10:42:34;;;;;;;2.02;1.40;;;;;;;27.16;40.93;100646.11;1716876;82;20999;-82
2022/07/16 10:45:00;;;;;;;1.40;1.20;;;;;;;27.16;40.93;100643.31;1709380;82;21568;-82
2022/07/16 10:47:47;;;;;;;2.62;1.30;;;;;;;27.16;40.94;100641.92;1732036;82;21090;-81
2022/07/16 10:50:22;;;;;;;1.35;1.25;;;;;;;27.16;40.96;100634.13;1731933;81;21031;-82
2022/07/16 10:52:51;;;;;;;1.75;1.30;;;;;;;27.16;40.94;100636.91;1731944;82;21801;-82
2022/07/16 10:55:32;;;;;;;2.52;1.20;;;;;;;27.17;40.94;100637.95;1732000;82;21079;-82
2022/07/16 10:58:01;;;;;;;2.85;1.40;;;;;;;27.16;40.95;100636.33;1707114;82;21024;-82
2022/07/16 11:00:27;;;;;;;1.62;1.35;;;;;;;27.16;40.96;100629.34;1731363;81;21032;-82
2022/07/16 11:02:59;;;;;;;3.27;1.30;;;;;;;27.17;40.98;100615.61;1715658;82;21039;-82
2022/07/16 11:05:27;;;;;;;1.37;1.27;;;;;;;27.18;40.98;100625.62;1709672;82;21074;-81
2022/07/16 11:07:53;;;;;;;1.72;1.30;;;;;;;27.19;40.99;100622.23;1714922;82;21106;-82
2022/07/16 11:10:23;;;;;;;1.50;1.40;;;;;;;27.18;41.00;100617.82;1691482;83;21508;-82
2022/07/16 11:12:49;;;;;;;2.12;1.62;;;;;;;27.19;41.00;100616.66;1682622;85;21106;-81
2022/07/16 11:15:16;;;;;;;1.57;1.30;;;;;;;27.19;41.02;100613.86;1682271;83;21097;-82
2022/07/16 11:17:42;;;;;;;1.45;1.27;;;;;;;27.19;41.02;100613.86;1688144;83;21140;-82
2022/07/16 11:20:15;;;;;;;1.82;1.12;;;;;;;27.20;41.04;100621.85;1724672;81;21042;-82
2022/07/16 11:22:42;;;;;;;1.62;1.30;;;;;;;27.20;41.04;100621.07;1750964;82;21061;-81
2022/07/16 11:25:15;;;;;;;2.05;1.30;;;;;;;27.20;41.04;100616.27;1751212;81;21497;-82
2022/07/16 11:27:42;;;;;;;1.55;1.37;;;;;;;27.21;41.04;100622.66;1751251;81;21081;-82
2022/07/16 11:30:10;;;;;;;1.27;1.17;;;;;;;27.20;41.04;100631.62;1751275;82;21167;-82
2022/07/16 11:32:46;;;;;;;1.67;1.27;;;;;;;27.21;41.03;100618.47;1751174;81;21065;-82
2022/07/16 11:35:18;;;;;;;1.87;1.30;;;;;;;27.22;41.00;100635.47;1750929;82;21057;-82
2022/07/16 11:37:56;;;;;;;1.82;1.40;;;;;;;27.21;41.00;100620.69;1751269;80;21505;-82
2022/07/16 11:40:36;;;;;;;1.72;1.30;;;;;;;27.22;40.98;100620.91;1751065;80;21061;-81